Time;durP1;ratioP1;P1;durP2;ratioP2;P2;SDS_P1;SDS_P2;PMS_P1;PMS_P2;Temp;Humidity;BMP_temperature;BMP_pressure;BME280_temperature;BME280_humidity;BME280_pressure;Samples;Min_cycle;Max_cycle;Signal;HPM_P1;HPM_P2
2022/09/16 06:17:29;;;;;;;;;8.75;7.75;;;;;;;;5097224;27;1435917;-74
2022/09/16 06:19:54;;;;;;;;;4.00;4.00;;;;;;;;5146277;27;20684;-75
2022/09/16 06:22:19;;;;;;;;;5.00;5.00;;;;;;;;5117253;27;11303;-76
2022/09/16 06:24:45;;;;;;;;;8.00;6.33;;;;;;;;5136511;27;9115;-76
2022/09/16 06:27:10;;;;;;;;;5.00;5.00;;;;;;;;5151049;27;11301;-73
2022/09/16 06:29:35;;;;;;;;;5.00;5.00;;;;;;;;5154285;27;11365;-72
2022/09/16 06:32:00;;;;;;;;;6.00;4.00;;;;;;;;5156631;27;8771;-72
2022/09/16 06:34:26;;;;;;;;;5.00;5.00;;;;;;;;5156446;27;8973;-74
2022/09/16 06:36:51;;;;;;;;;6.67;6.00;;;;;;;;5154482;27;8937;-72
2022/09/16 06:39:16;;;;;;;;;6.00;5.00;;;;;;;;5151647;27;10303;-72
2022/09/16 06:41:42;;;;;;;;;6.33;6.33;;;;;;;;5152510;27;9472;-72
2022/09/16 06:44:08;;;;;;;;;7.00;5.00;;;;;;;;5152742;27;10294;-73
2022/09/16 06:46:33;;;;;;;;;5.00;3.33;;;;;;;;5149180;27;11784;-72
2022/09/16 06:48:58;;;;;;;;;5.67;4.33;;;;;;;;5133701;27;11869;-71
2022/09/16 06:51:25;;;;;;;;;10.67;5.00;;;;;;;;5141141;27;9812;-72
2022/09/16 06:53:50;;;;;;;;;6.00;4.50;;;;;;;;5139951;27;21409;-73
2022/09/16 06:56:17;;;;;;;;;7.67;4.33;;;;;;;;5136850;27;21554;-74
2022/09/16 06:58:43;;;;;;;;;4.00;4.00;;;;;;;;5135007;27;11424;-73
2022/09/16 07:01:10;;;;;;;;;5.00;4.25;;;;;;;;5141917;27;11529;-74
2022/09/16 07:03:39;;;;;;;;;5.75;4.25;;;;;;;;5154095;27;11384;-73
2022/09/16 07:06:05;;;;;;;;;5.75;3.50;;;;;;;;5152810;27;9740;-72
2022/09/16 07:08:31;;;;;;;;;5.00;4.00;;;;;;;;5135998;27;9372;-73
2022/09/16 07:11:01;;;;;;;;;6.33;4.67;;;;;;;;5154836;27;10347;-73
2022/09/16 07:13:26;;;;;;;;;4.75;4.00;;;;;;;;5152174;27;11487;-74
2022/09/16 07:15:52;;;;;;;;;5.00;3.00;;;;;;;;5153121;27;11493;-75
2022/09/16 07:18:17;;;;;;;;;3.00;3.00;;;;;;;;5154264;27;10252;-73
2022/09/16 07:20:42;;;;;;;;;4.33;3.00;;;;;;;;5154688;27;8794;-76
2022/09/16 07:23:08;;;;;;;;;3.00;3.00;;;;;;;;5154827;27;8852;-75
2022/09/16 07:25:34;;;;;;;;;9.67;9.00;;;;;;;;5154278;27;8913;-76
2022/09/16 07:27:59;;;;;;;;;6.25;5.75;;;;;;;;5144301;27;10599;-75
2022/09/16 07:30:27;;;;;;;;;7.67;6.67;;;;;;;;5140494;27;12514;-74
2022/09/16 07:32:52;;;;;;;;;6.50;5.75;;;;;;;;5121330;27;12029;-73
2022/09/16 07:35:17;;;;;;;;;7.00;7.00;;;;;;;;5141079;27;11297;-74
2022/09/16 07:37:43;;;;;;;;;9.00;8.67;;;;;;;;5138698;27;11286;-74
2022/09/16 07:40:08;;;;;;;;;9.67;8.33;;;;;;;;5132727;27;11295;-73
2022/09/16 07:42:34;;;;;;;;;8.67;6.67;;;;;;;;5128527;27;8909;-72
2022/09/16 07:44:59;;;;;;;;;7.33;7.00;;;;;;;;5133407;27;11494;-74
2022/09/16 07:47:24;;;;;;;;;7.00;6.33;;;;;;;;5128099;27;11322;-74
2022/09/16 07:49:54;;;;;;;;;6.00;6.00;;;;;;;;5129250;27;10276;-73
2022/09/16 07:52:20;;;;;;;;;4.25;4.25;;;;;;;;5130363;27;11644;-73
2022/09/16 07:54:45;;;;;;;;;3.00;2.33;;;;;;;;5138474;27;11326;-77
2022/09/16 07:57:10;;;;;;;;;3.00;3.00;;;;;;;;5140731;27;10436;-76
2022/09/16 07:59:36;;;;;;;;;2.67;2.67;;;;;;;;5140742;27;8922;-75
2022/09/16 08:02:01;;;;;;;;;5.33;4.00;;;;;;;;5140933;27;11290;-76
2022/09/16 08:04:26;;;;;;;;;2.33;2.33;;;;;;;;5121761;27;11944;-75
2022/09/16 08:06:51;;;;;;;;;2.00;2.00;;;;;;;;5130907;27;11296;-74
2022/09/16 08:09:17;;;;;;;;;3.67;2.67;;;;;;;;5130991;27;8837;-75
2022/09/16 08:11:42;;;;;;;;;6.00;4.00;;;;;;;;5135766;27;12145;-73
2022/09/16 08:14:07;;;;;;;;;3.00;2.67;;;;;;;;5139873;27;11291;-74
2022/09/16 08:16:32;;;;;;;;;3.67;3.67;;;;;;;;5139121;27;11273;-75
2022/09/16 08:18:58;;;;;;;;;23.50;21.75;;;;;;;;5139218;27;9594;-74
2022/09/16 08:21:25;;;;;;;;;3.00;3.00;;;;;;;;5138451;27;23129;-75
2022/09/16 08:23:50;;;;;;;;;4.25;3.25;;;;;;;;5139133;27;24492;-75
2022/09/16 08:26:16;;;;;;;;;4.00;4.00;;;;;;;;5116580;27;13830;-76
2022/09/16 08:28:43;;;;;;;;;1.00;0.00;;;;;;;;5138200;27;10648;-74
2022/09/16 08:31:08;;;;;;;;;0.00;0.00;;;;;;;;5133319;27;9395;-77
2022/09/16 08:33:34;;;;;;;;;1.00;1.00;;;;;;;;5129535;27;8788;-75
2022/09/16 08:36:00;;;;;;;;;2.33;2.33;;;;;;;;5133254;27;8817;-75
2022/09/16 08:38:26;;;;;;;;;1.80;1.80;;;;;;;;5135739;27;11607;-75
2022/09/16 08:40:54;;;;;;;;;0.75;0.75;;;;;;;;5138634;27;10664;-76
2022/09/16 08:43:24;;;;;;;;;2.40;1.40;;;;;;;;5133281;27;8793;-75
2022/09/16 08:45:53;;;;;;;;;1.00;1.00;;;;;;;;5130139;27;11651;-76
2022/09/16 08:48:26;;;;;;;;;2.00;1.00;;;;;;;;5120429;27;11673;-76
2022/09/16 08:50:52;;;;;;;;;0.80;0.80;;;;;;;;5133527;27;8968;-76
2022/09/16 08:53:32;;;;;;;;;1.50;1.50;;;;;;;;5119602;27;12822;-73
2022/09/16 08:56:00;;;;;;;;;2.00;2.00;;;;;;;;5115116;27;11816;-73
2022/09/16 08:58:27;;;;;;;;;1.00;1.00;;;;;;;;5134932;27;12106;-72
2022/09/16 09:00:57;;;;;;;;;1.00;1.00;;;;;;;;5136819;27;8797;-73
2022/09/16 09:03:34;;;;;;;;;0.60;0.40;;;;;;;;5140385;27;8845;-73
2022/09/16 09:06:02;;;;;;;;;0.00;0.00;;;;;;;;5139621;27;11864;-73
2022/09/16 09:08:31;;;;;;;;;0.20;0.20;;;;;;;;5140402;27;9592;-76
2022/09/16 09:11:02;;;;;;;;;0.00;0.00;;;;;;;;5137522;27;8782;-76
2022/09/16 09:13:50;;;;;;;;;0.60;0.40;;;;;;;;5140073;27;8886;-73
2022/09/16 09:16:15;;;;;;;;;0.00;0.00;;;;;;;;5138588;27;8964;-73
2022/09/16 09:18:46;;;;;;;;;0.00;0.00;;;;;;;;5139783;27;8790;-72
2022/09/16 09:21:21;;;;;;;;;0.00;0.00;;;;;;;;5129625;27;8940;-74
2022/09/16 09:23:46;;;;;;;;;2.00;0.00;;;;;;;;5136768;27;8766;-73
2022/09/16 09:26:21;;;;;;;;;1.50;1.50;;;;;;;;5139744;27;8794;-74
2022/09/16 09:29:02;;;;;;;;;3.20;3.20;;;;;;;;5139201;27;11994;-71
2022/09/16 09:31:28;;;;;;;;;0.20;0.20;;;;;;;;5131683;27;11614;-72
2022/09/16 09:33:53;;;;;;;;;6.00;5.00;;;;;;;;5138257;27;8918;-74
2022/09/16 09:36:26;;;;;;;;;2.00;2.00;;;;;;;;5137298;27;10999;-74
2022/09/16 09:39:06;;;;;;;;;1.00;0.80;;;;;;;;5138800;27;8906;-74
2022/09/16 09:41:32;;;;;;;;;5.20;4.60;;;;;;;;5134356;27;11412;-73
2022/09/16 09:44:14;;;;;;;;;2.00;1.00;;;;;;;;5138142;27;11485;-75
2022/09/16 09:46:44;;;;;;;;;2.20;2.00;;;;;;;;5133059;27;11974;-75
2022/09/16 09:49:12;;;;;;;;;1.40;0.80;;;;;;;;5135896;27;10787;-75
2022/09/16 09:52:06;;;;;;;;;1.00;1.00;;;;;;;;5137108;27;11371;-77
2022/09/16 09:54:36;;;;;;;;;2.40;2.40;;;;;;;;5046807;28;10411;-78
2022/09/16 09:57:10;;;;;;;;;4.40;2.60;;;;;;;;5056756;28;12377;-77
2022/09/16 09:59:49;;;;;;;;;1.00;1.00;;;;;;;;5053827;28;13028;-75
2022/09/16 10:02:16;;;;;;;;;1.40;1.00;;;;;;;;5054634;28;11376;-75
2022/09/16 10:04:41;;;;;;;;;4.40;3.00;;;;;;;;5077645;27;8809;-75
2022/09/16 10:07:07;;;;;;;;;5.00;5.00;;;;;;;;5128875;27;8802;-75
2022/09/16 10:09:34;;;;;;;;;3.00;2.50;;;;;;;;5127931;27;11047;-74
2022/09/16 10:12:00;;;;;;;;;4.20;3.00;;;;;;;;5129532;27;11544;-75
2022/09/16 10:14:29;;;;;;;;;3.80;2.00;;;;;;;;5128589;27;11873;-75
2022/09/16 10:16:58;;;;;;;;;2.40;2.40;;;;;;;;5133863;27;10491;-75
2022/09/16 10:19:25;;;;;;;;;4.20;3.00;;;;;;;;5137189;27;13168;-75
2022/09/16 10:21:53;;;;;;;;;1.60;1.60;;;;;;;;5138904;27;11813;-76
2022/09/16 10:24:24;;;;;;;;;0.00;0.00;;;;;;;;5136414;27;11351;-74
2022/09/16 10:26:49;;;;;;;;;2.60;1.00;;;;;;;;5133605;27;11348;-75
2022/09/16 10:29:16;;;;;;;;;1.50;1.00;;;;;;;;5136341;27;10485;-75
2022/09/16 10:31:42;;;;;;;;;4.00;2.20;;;;;;;;5117346;27;9030;-74
2022/09/16 10:34:13;;;;;;;;;3.50;2.00;;;;;;;;5118170;28;11429;-75
2022/09/16 10:36:38;;;;;;;;;3.00;2.20;;;;;;;;5131999;27;11373;-75
2022/09/16 10:39:04;;;;;;;;;4.00;3.00;;;;;;;;5138647;27;9134;-74
2022/09/16 10:41:33;;;;;;;;;2.25;2.25;;;;;;;;5137895;27;11807;-75
2022/09/16 10:44:01;;;;;;;;;0.00;0.00;;;;;;;;5120631;27;11565;-74
2022/09/16 10:46:27;;;;;;;;;4.25;1.75;;;;;;;;5134880;27;11370;-74
2022/09/16 10:48:56;;;;;;;;;1.00;1.00;;;;;;;;5119444;27;11796;-75
2022/09/16 10:51:25;;;;;;;;;0.75;0.00;;;;;;;;5137566;27;12002;-75
2022/09/16 10:53:58;;;;;;;;;0.00;0.00;;;;;;;;5137782;27;10767;-75
2022/09/16 10:56:28;;;;;;;;;1.00;0.00;;;;;;;;5119587;27;8772;-74
2022/09/16 10:59:08;;;;;;;;;0.00;0.00;;;;;;;;5117075;28;8907;-76
2022/09/16 11:01:37;;;;;;;;;1.00;1.00;;;;;;;;5115916;27;8867;-75
2022/09/16 11:04:21;;;;;;;;;0.25;0.00;;;;;;;;5129120;27;8810;-74
2022/09/16 11:06:58;;;;;;;;;0.00;0.00;;;;;;;;5142028;27;10937;-76
2022/09/16 11:09:23;;;;;;;;;2.00;2.00;;;;;;;;5142989;27;8835;-76
2022/09/16 11:11:54;;;;;;;;;1.00;1.00;;;;;;;;5142288;27;8774;-76
2022/09/16 11:14:32;;;;;;;;;0.50;0.00;;;;;;;;5125637;27;9638;-75
2022/09/16 11:17:10;;;;;;;;;0.25;0.25;;;;;;;;5120936;28;10595;-76
2022/09/16 11:19:44;;;;;;;;;0.00;0.00;;;;;;;;5121012;28;8806;-75
2022/09/16 11:22:29;;;;;;;;;2.00;0.25;;;;;;;;5120741;28;8992;-75
2022/09/16 11:24:58;;;;;;;;;2.00;1.00;;;;;;;;5119457;27;12880;-74
2022/09/16 11:27:23;;;;;;;;;2.25;0.25;;;;;;;;5142423;27;8860;-74
2022/09/16 11:29:54;;;;;;;;;2.00;2.00;;;;;;;;5142095;27;10599;-75
2022/09/16 11:32:22;;;;;;;;;3.25;1.00;;;;;;;;5141167;27;10581;-74
2022/09/16 11:35:16;;;;;;;;;3.50;1.00;;;;;;;;5139708;27;10347;-74
2022/09/16 11:37:56;;;;;;;;;1.00;1.00;;;;;;;;5114350;27;8814;-74
2022/09/16 11:40:22;;;;;;;;;1.25;1.25;;;;;;;;5140919;27;8910;-76
2022/09/16 11:42:53;;;;;;;;;1.00;1.00;;;;;;;;5137770;27;9549;-74
2022/09/16 11:45:33;;;;;;;;;0.00;0.00;;;;;;;;5141068;27;8988;-74
2022/09/16 11:48:17;;;;;;;;;0.00;0.00;;;;;;;;5141139;27;8795;-74
2022/09/16 11:50:56;;;;;;;;;1.25;1.25;;;;;;;;5141428;27;8789;-74
2022/09/16 11:53:27;;;;;;;;;1.50;1.00;;;;;;;;5138881;27;12716;-74
2022/09/16 11:55:58;;;;;;;;;2.25;0.50;;;;;;;;5141463;27;9685;-74
2022/09/16 11:58:40;;;;;;;;;3.25;1.25;;;;;;;;5140883;27;12573;-74
2022/09/16 12:01:12;;;;;;;;;2.75;1.75;;;;;;;;5133179;27;11423;-73
2022/09/16 12:03:41;;;;;;;;;4.00;4.00;;;;;;;;5120391;27;10364;-73
2022/09/16 12:06:10;;;;;;;;;2.50;2.50;;;;;;;;5101429;28;12305;-74
2022/09/16 12:08:44;;;;;;;;;3.00;3.00;;;;;;;;5120670;28;11446;-74
2022/09/16 12:11:15;;;;;;;;;3.50;1.25;;;;;;;;5120313;28;11934;-75
2022/09/16 12:13:45;;;;;;;;;2.25;2.25;;;;;;;;5127175;27;10637;-74
2022/09/16 12:16:16;;;;;;;;;2.50;2.50;;;;;;;;5140109;27;10589;-76
2022/09/16 12:18:44;;;;;;;;;3.00;3.00;;;;;;;;5134511;27;8846;-77
2022/09/16 12:21:13;;;;;;;;;2.50;2.50;;;;;;;;5116001;27;13727;-76
2022/09/16 12:23:44;;;;;;;;;3.00;2.75;;;;;;;;5132866;27;11383;-80
2022/09/16 12:26:12;;;;;;;;;1.75;1.75;;;;;;;;5121922;27;13325;-75
2022/09/16 12:28:45;;;;;;;;;0.25;0.25;;;;;;;;5141393;27;11586;-74
2022/09/16 12:31:30;;;;;;;;;2.00;2.00;;;;;;;;5140960;27;10606;-76
2022/09/16 12:33:58;;;;;;;;;2.00;2.00;;;;;;;;5136392;27;11384;-77
2022/09/16 12:36:28;;;;;;;;;4.00;4.00;;;;;;;;5126329;27;8784;-77
2022/09/16 12:38:56;;;;;;;;;3.75;2.00;;;;;;;;5119362;28;10054;-76
2022/09/16 12:41:21;;;;;;;;;3.50;3.00;;;;;;;;5120254;28;10415;-75
2022/09/16 12:43:55;;;;;;;;;2.00;2.00;;;;;;;;5128189;27;9509;-77
2022/09/16 12:46:39;;;;;;;;;4.00;2.75;;;;;;;;5139847;27;12732;-78
2022/09/16 12:49:23;;;;;;;;;7.25;5.00;;;;;;;;5140261;27;11759;-74
2022/09/16 12:52:06;;;;;;;;;11.50;7.25;;;;;;;;5140458;27;11439;-74
2022/09/16 12:54:31;;;;;;;;;6.25;6.25;;;;;;;;5139650;27;21942;-74
2022/09/16 12:57:21;;;;;;;;;7.67;5.67;;;;;;;;5139554;27;22488;-74
2022/09/16 12:59:58;;;;;;;;;7.75;5.50;;;;;;;;5140398;27;11360;-74
2022/09/16 13:02:29;;;;;;;;;6.25;6.00;;;;;;;;5140272;27;9607;-74
2022/09/16 13:04:57;;;;;;;;;6.50;5.25;;;;;;;;5140089;27;11384;-75
2022/09/16 13:07:28;;;;;;;;;4.00;4.00;;;;;;;;5140379;27;10611;-75
2022/09/16 13:10:00;;;;;;;;;6.00;6.00;;;;;;;;5140198;27;11490;-75
2022/09/16 13:12:27;;;;;;;;;5.00;5.00;;;;;;;;5140284;27;8865;-75
2022/09/16 13:14:54;;;;;;;;;6.50;4.75;;;;;;;;5139692;27;8825;-75
2022/09/16 13:17:28;;;;;;;;;7.75;5.50;;;;;;;;5121111;27;12766;-75
2022/09/16 13:19:55;;;;;;;;;6.50;5.00;;;;;;;;5139782;27;11408;-74
2022/09/16 13:22:24;;;;;;;;;7.75;6.75;;;;;;;;5139253;27;11385;-75
2022/09/16 13:24:54;;;;;;;;;8.25;6.00;;;;;;;;5138996;27;12616;-75
2022/09/16 13:27:33;;;;;;;;;5.00;3.50;;;;;;;;5139695;27;12715;-75
2022/09/16 13:30:07;;;;;;;;;4.25;3.75;;;;;;;;5140614;27;12580;-75
2022/09/16 13:32:37;;;;;;;;;5.25;4.75;;;;;;;;5138614;27;11756;-74
2022/09/16 13:35:17;;;;;;;;;4.50;3.00;;;;;;;;5139523;27;8964;-74
2022/09/16 13:37:46;;;;;;;;;3.25;2.50;;;;;;;;5139562;27;11412;-74
2022/09/16 13:40:20;;;;;;;;;2.75;1.50;;;;;;;;5139186;27;11400;-74
2022/09/16 13:42:46;;;;;;;;;2.00;2.00;;;;;;;;5139669;27;9552;-73
2022/09/16 13:45:37;;;;;;;;;4.67;3.00;;;;;;;;5138803;27;10728;-74
2022/09/16 13:48:29;;;;;;;;;3.75;3.00;;;;;;;;5134553;27;11761;-75
2022/09/16 13:50:58;;;;;;;;;1.00;1.00;;;;;;;;5134064;27;8863;-74
2022/09/16 13:53:31;;;;;;;;;3.50;2.00;;;;;;;;5138777;27;10616;-74
2022/09/16 13:56:05;;;;;;;;;2.75;2.25;;;;;;;;5139785;27;10923;-74
2022/09/16 13:58:36;;;;;;;;;3.00;2.50;;;;;;;;5139508;27;11791;-75
2022/09/16 14:01:12;;;;;;;;;6.50;2.75;;;;;;;;5139926;27;11925;-74
2022/09/16 14:03:55;;;;;;;;;3.00;2.00;;;;;;;;5139071;27;11357;-72
2022/09/16 14:06:59;;;;;;;;;4.00;2.75;;;;;;;;5139478;27;11390;-73
2022/09/16 14:09:36;;;;;;;;;3.00;1.00;;;;;;;;5034711;28;12739;-74
2022/09/16 14:12:12;;;;;;;;;2.50;2.00;;;;;;;;5032650;28;12474;-74
2022/09/16 14:14:37;;;;;;;;;2.00;2.00;;;;;;;;5031823;28;10389;-73
2022/09/16 14:17:04;;;;;;;;;4.00;4.00;;;;;;;;5032962;28;8829;-73
2022/09/16 14:19:35;;;;;;;;;5.00;4.00;;;;;;;;5034566;28;8978;-74
2022/09/16 14:22:05;;;;;;;;;2.50;0.00;;;;;;;;5137869;27;8825;-74
2022/09/16 14:24:35;;;;;;;;;4.00;2.00;;;;;;;;5137158;27;10831;-73
2022/09/16 14:27:00;;;;;;;;;2.00;2.00;;;;;;;;5136202;27;10365;-74
2022/09/16 14:29:26;;;;;;;;;2.67;1.33;;;;;;;;5138920;27;9669;-72
2022/09/16 14:31:53;;;;;;;;;2.25;1.00;;;;;;;;5138717;27;10850;-73
2022/09/16 14:34:38;;;;;;;;;1.25;1.00;;;;;;;;5138319;27;8905;-72
2022/09/16 14:37:04;;;;;;;;;1.00;1.00;;;;;;;;5136698;27;8825;-73
2022/09/16 14:39:30;;;;;;;;;1.00;0.00;;;;;;;;5142690;27;8782;-74
2022/09/16 14:42:02;;;;;;;;;2.00;2.00;;;;;;;;5142172;27;8766;-74
2022/09/16 14:44:35;;;;;;;;;3.50;1.00;;;;;;;;5142137;27;9602;-73
2022/09/16 14:47:14;;;;;;;;;0.50;0.50;;;;;;;;5139613;27;10840;-79
2022/09/16 14:49:40;;;;;;;;;0.50;0.50;;;;;;;;5142642;27;11891;-74
2022/09/16 14:52:14;;;;;;;;;3.00;1.00;;;;;;;;5142278;27;8928;-73
2022/09/16 14:54:43;;;;;;;;;1.00;0.00;;;;;;;;5124526;27;11578;-74
2022/09/16 14:57:26;;;;;;;;;2.00;1.00;;;;;;;;5129120;27;8808;-74
2022/09/16 14:59:53;;;;;;;;;1.00;1.00;;;;;;;;5140150;27;8910;-74
2022/09/16 15:02:25;;;;;;;;;1.00;1.00;;;;;;;;5142755;27;8770;-73
2022/09/16 15:04:53;;;;;;;;;2.00;0.00;;;;;;;;5142128;27;8778;-73
2022/09/16 15:07:23;;;;;;;;;0.00;0.00;;;;;;;;5141875;27;8960;-73
2022/09/16 15:09:49;;;;;;;;;0.00;0.00;;;;;;;;5124586;27;8817;-74
2022/09/16 15:12:21;;;;;;;;;2.67;1.67;;;;;;;;5142935;27;8770;-74
2022/09/16 15:14:46;;;;;;;;;1.00;1.00;;;;;;;;5142384;27;11759;-74
2022/09/16 15:17:15;;;;;;;;;2.00;2.00;;;;;;;;5142016;27;11641;-74
2022/09/16 15:19:40;;;;;;;;;4.50;3.25;;;;;;;;5142345;27;8766;-72
2022/09/16 15:22:08;;;;;;;;;3.00;3.00;;;;;;;;5142120;27;11357;-73
2022/09/16 15:24:34;;;;;;;;;9.00;3.25;;;;;;;;5143526;27;11392;-74
2022/09/16 15:27:02;;;;;;;;;2.00;2.00;;;;;;;;5142697;27;12830;-74
2022/09/16 15:29:30;;;;;;;;;5.00;3.00;;;;;;;;5142890;27;11972;-73
